createdAt,value
2019-03-12T00:00:39.747Z,18.1
2019-03-12T00:01:29.540Z,18.1
2019-03-12T00:02:19.371Z,18.1
2019-03-12T00:03:09.122Z,18.1
2019-03-12T00:03:58.905Z,18.1
2019-03-12T00:04:49.229Z,18.1
2019-03-12T00:05:39.031Z,18.1
2019-03-12T00:06:29.410Z,18.1
2019-03-12T00:07:19.962Z,18
2019-03-12T00:08:08.897Z,18.1
2019-03-12T00:08:59.615Z,18.1
2019-03-12T00:09:49.337Z,18.1
2019-03-12T00:10:39.639Z,18.1
2019-03-12T00:11:29.977Z,18.1
2019-03-12T00:12:19.625Z,18.1
2019-03-12T00:13:09.859Z,18.1
2019-03-12T00:14:00.429Z,18.1
2019-03-12T00:14:50.459Z,18.1
2019-03-12T00:15:40.267Z,18.1
2019-03-12T00:16:30.162Z,18.1
2019-03-12T00:17:19.544Z,18.1
2019-03-12T00:18:10.278Z,18.1
2019-03-12T00:18:59.422Z,18.1
2019-03-12T00:19:49.734Z,18.1
2019-03-12T00:20:39.844Z,18.1
2019-03-12T00:21:30.979Z,18.1
2019-03-12T00:22:19.921Z,18.1
2019-03-12T00:23:10.601Z,18
2019-03-12T00:24:00.608Z,18
2019-03-12T00:24:50.654Z,18
2019-03-12T00:25:41.026Z,18
2019-03-12T00:26:31.066Z,18
2019-03-12T00:27:20.849Z,18
2019-03-12T00:28:10.905Z,18
2019-03-12T00:29:00.971Z,18
2019-03-12T00:29:51.663Z,18
2019-03-12T00:30:40.894Z,18
2019-03-12T00:31:31.236Z,18
2019-03-12T00:32:21.478Z,18
2019-03-12T00:33:11.927Z,18
2019-03-12T00:34:01.321Z,18
2019-03-12T00:34:51.658Z,18
2019-03-12T00:35:41.525Z,18
2019-03-12T00:36:31.760Z,18
2019-03-12T00:37:21.583Z,18
2019-03-12T00:38:11.331Z,18
2019-03-12T00:39:02.220Z,18
2019-03-12T00:39:52.305Z,18
2019-03-12T00:40:42.190Z,18
2019-03-12T00:41:32.473Z,18
2019-03-12T00:42:21.370Z,17.9
2019-03-12T00:43:11.968Z,18
2019-03-12T00:44:01.592Z,18
2019-03-12T00:44:51.935Z,18
2019-03-12T00:45:42.775Z,18
2019-03-12T00:46:35.254Z,18
2019-03-12T00:47:21.740Z,18
2019-03-12T00:48:12.335Z,18
2019-03-12T00:49:02.155Z,18
2019-03-12T00:49:52.740Z,17.9
2019-03-12T00:50:42.797Z,18
2019-03-12T00:51:32.629Z,17.9
2019-03-12T00:52:22.899Z,18
2019-03-12T00:53:12.732Z,18
2019-03-12T00:54:02.229Z,17.9
2019-03-12T00:54:52.543Z,18
2019-03-12T00:55:43.181Z,17.9
2019-03-12T00:56:32.424Z,17.9
2019-03-12T00:57:23.003Z,17.9
2019-03-12T00:58:13.385Z,17.9
2019-03-12T00:59:02.287Z,18
2019-03-12T00:59:56.162Z,17.9
2019-03-12T01:00:42.442Z,17.9
2019-03-12T01:01:33.329Z,17.9
2019-03-12T01:02:23.924Z,17.9
2019-03-12T01:03:13.524Z,17.9
2019-03-12T01:04:04.106Z,17.9
2019-03-12T01:04:53.589Z,17.9
2019-03-12T01:05:43.624Z,17.9
2019-03-12T01:06:34.244Z,17.9
2019-03-12T01:07:24.343Z,17.9
2019-03-12T01:08:13.528Z,17.9
2019-03-12T01:09:04.501Z,17.9
2019-03-12T01:09:53.153Z,17.9
2019-03-12T01:10:44.881Z,17.9
2019-03-12T01:11:34.353Z,17.9
2019-03-12T01:12:24.171Z,17.9
2019-03-12T01:13:13.967Z,17.9
2019-03-12T01:14:04.803Z,17.9
2019-03-12T01:14:54.263Z,17.9
2019-03-12T01:15:44.955Z,17.9
2019-03-12T01:16:34.086Z,17.9
2019-03-12T01:17:25.006Z,17.9
2019-03-12T01:18:17.528Z,17.9
2019-03-12T01:19:05.246Z,17.9
2019-03-12T01:19:55.481Z,17.9
2019-03-12T01:20:44.556Z,17.9
2019-03-12T01:21:35.070Z,17.9
2019-03-12T01:22:25.188Z,17.9
2019-03-12T01:23:14.322Z,17.9
2019-03-12T01:24:05.388Z,17.9
2019-03-12T01:24:55.311Z,17.9
2019-03-12T01:25:44.715Z,17.9
2019-03-12T01:26:34.597Z,17.9
2019-03-12T01:27:25.765Z,17.9
2019-03-12T01:28:16.090Z,17.9
2019-03-12T01:29:05.569Z,17.9
2019-03-12T01:29:55.950Z,17.9
2019-03-12T01:30:45.748Z,17.9
2019-03-12T01:31:36.030Z,17.9
2019-03-12T01:32:26.149Z,17.9
2019-03-12T01:33:15.322Z,17.9
2019-03-12T01:34:05.450Z,17.9
2019-03-12T01:34:55.169Z,17.9
2019-03-12T01:35:46.105Z,17.9
2019-03-12T01:36:36.172Z,17.9
2019-03-12T01:37:26.035Z,17.9
2019-03-12T01:38:16.539Z,17.9
2019-03-12T01:39:04.928Z,17.9
2019-03-12T01:39:56.349Z,17.9
2019-03-12T01:40:46.400Z,17.9
2019-03-12T01:41:35.097Z,17.9
2019-03-12T01:42:26.704Z,17.9
2019-03-12T01:43:16.099Z,17.9
2019-03-12T01:44:06.401Z,17.9
2019-03-12T01:44:56.199Z,17.9
2019-03-12T01:45:46.799Z,17.9
2019-03-12T01:46:36.364Z,17.9
2019-03-12T01:47:27.026Z,17.9
2019-03-12T01:48:16.704Z,17.9
2019-03-12T01:49:05.674Z,17.8
2019-03-12T01:49:57.076Z,17.9
2019-03-12T01:50:47.738Z,17.9
2019-03-12T01:51:39.125Z,17.9
2019-03-12T01:52:27.315Z,17.9
2019-03-12T01:53:16.806Z,17.9
2019-03-12T01:54:07.444Z,17.9
2019-03-12T01:54:56.766Z,17.9
2019-03-12T01:55:47.844Z,17.9
2019-03-12T01:56:37.345Z,17.9
2019-03-12T01:57:28.003Z,17.9
2019-03-12T01:58:21.463Z,17.9
2019-03-12T01:59:06.666Z,17.9
2019-03-12T01:59:57.878Z,17.9
2019-03-12T02:00:47.374Z,17.9
2019-03-12T02:01:37.688Z,17.9
2019-03-12T02:02:27.451Z,17.9
2019-03-12T02:03:18.483Z,17.9
2019-03-12T02:04:08.049Z,17.9
2019-03-12T02:04:57.366Z,17.9
2019-03-12T02:05:48.251Z,17.9
2019-03-12T02:06:38.331Z,17.9
2019-03-12T02:07:28.720Z,17.9
2019-03-12T02:08:17.893Z,17.9
2019-03-12T02:09:09.115Z,17.9
2019-03-12T02:09:58.570Z,17.8
2019-03-12T02:10:48.693Z,17.8
2019-03-12T02:11:38.218Z,17.9
2019-03-12T02:12:28.178Z,17.9
2019-03-12T02:13:19.055Z,17.8
2019-03-12T02:14:08.850Z,17.9
2019-03-12T02:14:58.950Z,17.8
2019-03-12T02:15:49.002Z,17.8
2019-03-12T02:16:41.786Z,17.8
2019-03-12T02:17:28.591Z,17.8
2019-03-12T02:18:19.154Z,17.8
2019-03-12T02:19:09.547Z,17.8
2019-03-12T02:19:58.822Z,17.8
2019-03-12T02:20:49.618Z,17.8
2019-03-12T02:21:39.400Z,17.8
2019-03-12T02:22:28.919Z,17.8
2019-03-12T02:23:18.409Z,17.8
2019-03-12T02:24:09.342Z,17.8
2019-03-12T02:25:01.385Z,17.8
2019-03-12T02:25:49.692Z,17.8
2019-03-12T02:26:39.219Z,17.8
2019-03-12T02:27:29.818Z,17.8
2019-03-12T02:28:19.877Z,17.8
2019-03-12T02:29:10.519Z,17.8
2019-03-12T02:29:59.546Z,17.8
2019-03-12T02:30:50.303Z,17.8
2019-03-12T02:31:40.203Z,17.8
2019-03-12T02:32:29.705Z,17.8
2019-03-12T02:33:18.908Z,17.8
2019-03-12T02:34:11.021Z,17.8
2019-03-12T02:35:00.504Z,17.8
2019-03-12T02:35:50.489Z,17.8
2019-03-12T02:36:39.537Z,17.8
2019-03-12T02:37:30.505Z,17.8
2019-03-12T02:38:21.010Z,17.8
2019-03-12T02:39:10.453Z,17.8
2019-03-12T02:40:00.746Z,17.8
2019-03-12T02:40:49.605Z,17.8
2019-03-12T02:41:41.027Z,17.8
2019-03-12T02:42:30.718Z,17.8
2019-03-12T02:43:21.510Z,17.8
2019-03-12T02:44:10.412Z,17.8
2019-03-12T02:45:01.749Z,17.8
2019-03-12T02:45:51.078Z,17.8
2019-03-12T02:46:41.847Z,17.8
2019-03-12T02:47:31.477Z,17.8
2019-03-12T02:48:21.572Z,17.8
2019-03-12T02:49:17.352Z,17.8
2019-03-12T02:50:01.233Z,17.8
2019-03-12T02:50:50.503Z,17.8
2019-03-12T02:51:41.395Z,17.8
2019-03-12T02:52:31.863Z,17.8
2019-03-12T02:53:21.571Z,17.8
2019-03-12T02:54:11.201Z,17.8
2019-03-12T02:55:01.773Z,17.8
2019-03-12T02:55:51.468Z,17.8
2019-03-12T02:56:40.646Z,17.8
2019-03-12T02:57:32.390Z,17.8
2019-03-12T02:58:22.160Z,17.8
2019-03-12T02:59:12.313Z,17.8
2019-03-12T03:00:02.083Z,17.8
2019-03-12T03:00:51.523Z,17.8
2019-03-12T03:01:42.293Z,17.8
2019-03-12T03:02:32.437Z,17.8
2019-03-12T03:03:22.525Z,17.8
2019-03-12T03:04:13.129Z,17.8
2019-03-12T03:07:41.895Z,17.8
2019-03-12T03:08:33.966Z,17.8
2019-03-12T03:09:23.453Z,17.8
2019-03-12T03:10:13.100Z,17.7
2019-03-12T03:11:03.273Z,17.7
2019-03-12T03:11:57.142Z,17.7
2019-03-12T03:12:43.653Z,17.7
2019-03-12T03:13:33.282Z,17.7
2019-03-12T03:14:23.653Z,17.7
2019-03-12T03:15:13.780Z,17.7
2019-03-12T03:16:04.557Z,17.7
2019-03-12T03:16:53.365Z,17.7
2019-03-12T03:17:44.271Z,17.7
2019-03-12T03:18:34.165Z,17.7
2019-03-12T03:19:23.787Z,17.7
2019-03-12T03:20:13.986Z,17.7
2019-03-12T03:21:04.096Z,17.7
2019-03-12T03:21:52.919Z,17.7
2019-03-12T03:22:44.504Z,17.8
2019-03-12T03:23:34.534Z,17.7
2019-03-12T03:24:24.616Z,17.7
2019-03-12T03:25:14.594Z,17.7
2019-03-12T03:26:03.919Z,17.7
2019-03-12T03:26:54.312Z,17.7
2019-03-12T03:27:44.425Z,17.7
2019-03-12T03:28:34.639Z,17.8
2019-03-12T03:29:24.561Z,17.7
2019-03-12T03:30:15.061Z,17.7
2019-03-12T03:31:05.879Z,17.7
2019-03-12T03:31:54.403Z,17.7
2019-03-12T03:32:44.891Z,17.7
2019-03-12T03:33:35.341Z,17.8
2019-03-12T03:34:35.124Z,17.8
2019-03-12T03:35:15.254Z,17.7
2019-03-12T03:36:05.512Z,17.7
2019-03-12T03:36:55.638Z,17.7
2019-03-12T03:37:45.443Z,17.7
2019-03-12T03:38:35.531Z,17.7
2019-03-12T03:39:25.521Z,17.7
2019-03-12T03:40:15.618Z,17.7
2019-03-12T03:41:05.583Z,17.7
2019-03-12T03:41:55.550Z,17.7
2019-03-12T03:42:45.661Z,17.7
2019-03-12T03:43:36.198Z,17.7
2019-03-12T03:44:26.043Z,17.7
2019-03-12T03:45:16.331Z,17.7
2019-03-12T03:46:06.462Z,17.7
2019-03-12T03:46:56.117Z,17.7
2019-03-12T03:47:46.243Z,17.7
2019-03-12T03:48:36.641Z,17.7
2019-03-12T03:49:26.706Z,17.7
2019-03-12T03:50:16.425Z,17.7
2019-03-12T03:51:06.532Z,17.7
2019-03-12T03:51:56.732Z,17.7
2019-03-12T03:52:46.810Z,17.7
2019-03-12T03:53:36.474Z,17.7
2019-03-12T03:54:26.283Z,17.7
2019-03-12T03:55:16.031Z,17.7
2019-03-12T03:56:07.477Z,17.7
2019-03-12T03:56:57.115Z,17.7
2019-03-12T03:57:47.032Z,17.7
2019-03-12T03:58:36.148Z,17.7
2019-03-12T03:59:27.129Z,17.7
2019-03-12T04:00:17.044Z,17.7
2019-03-12T04:01:06.578Z,17.7
2019-03-12T04:01:56.925Z,17.7
2019-03-12T04:02:47.887Z,17.7
2019-03-12T04:03:37.742Z,17.7
2019-03-12T04:04:28.106Z,17.7
2019-03-12T04:05:17.789Z,17.6
2019-03-12T04:06:07.447Z,17.7
2019-03-12T04:06:57.437Z,17.7
2019-03-12T04:07:46.924Z,17.6
2019-03-12T04:08:37.462Z,17.6
2019-03-12T04:09:27.494Z,17.6
2019-03-12T04:10:18.017Z,17.7
2019-03-12T04:11:07.897Z,17.6
2019-03-12T04:11:57.329Z,17.6
2019-03-12T04:12:47.670Z,17.7
2019-03-12T04:13:38.452Z,17.7
2019-03-12T04:14:27.521Z,17.6
2019-03-12T04:15:18.103Z,17.6
2019-03-12T04:16:09.084Z,17.6
2019-03-12T04:16:58.592Z,17.6
2019-03-12T04:17:48.361Z,17.6
2019-03-12T04:18:38.770Z,17.6
2019-03-12T04:19:28.652Z,17.6
2019-03-12T04:20:18.048Z,17.6
2019-03-12T04:21:08.413Z,17.6
2019-03-12T04:21:58.905Z,17.6
2019-03-12T04:22:48.577Z,17.6
2019-03-12T04:23:38.398Z,17.6
2019-03-12T04:24:28.807Z,17.6
2019-03-12T04:25:33.185Z,17.6
2019-03-12T04:26:09.287Z,17.6
2019-03-12T04:26:58.753Z,17.6
2019-03-12T04:27:49.258Z,17.6
2019-03-12T04:28:39.177Z,17.6
2019-03-12T04:29:29.723Z,17.6
2019-03-12T04:30:18.853Z,17.6
2019-03-12T04:31:09.925Z,17.7
2019-03-12T04:31:59.927Z,17.7
2019-03-12T04:32:48.864Z,17.6
2019-03-12T04:33:39.514Z,17.6
2019-03-12T04:34:29.441Z,17.6
2019-03-12T04:35:19.505Z,17.6
2019-03-12T04:36:09.381Z,17.6
2019-03-12T04:37:00.132Z,17.6
2019-03-12T04:37:49.760Z,17.6
2019-03-12T04:38:39.842Z,17.6
2019-03-12T04:39:29.245Z,17.6
2019-03-12T04:40:19.734Z,17.6
2019-03-12T04:41:09.980Z,17.6
2019-03-12T04:41:59.141Z,17.6
2019-03-12T04:42:49.365Z,17.6
2019-03-12T04:43:40.159Z,17.6
2019-03-12T04:44:30.299Z,17.6
2019-03-12T04:45:20.103Z,17.6
2019-03-12T04:46:10.054Z,17.6
2019-03-12T04:47:00.216Z,17.6
2019-03-12T04:47:49.994Z,17.6
2019-03-12T04:48:40.713Z,17.6
2019-03-12T04:49:30.093Z,17.6
2019-03-12T04:50:20.136Z,17.6
2019-03-12T04:51:10.349Z,17.6
2019-03-12T04:52:01.138Z,17.6
2019-03-12T04:52:50.543Z,17.6
2019-03-12T04:53:44.657Z,17.6
2019-03-12T04:54:30.711Z,17.6
2019-03-12T04:55:20.002Z,17.6
2019-03-12T04:56:11.288Z,17.6
2019-03-12T04:57:01.353Z,17.6
2019-03-12T04:57:50.992Z,17.6
2019-03-12T04:58:41.170Z,17.6
2019-03-12T04:59:30.748Z,17.6
2019-03-12T05:00:21.346Z,17.6
2019-03-12T05:01:11.114Z,17.6
2019-03-12T05:02:01.545Z,17.6
2019-03-12T05:02:51.296Z,17.6
2019-03-12T05:03:40.998Z,17.6
2019-03-12T05:04:31.649Z,17.6
2019-03-12T05:05:21.765Z,17.6
2019-03-12T05:06:11.736Z,17.6
2019-03-12T05:07:01.228Z,17.6
2019-03-12T05:07:51.856Z,17.6
2019-03-12T05:08:41.630Z,17.6
2019-03-12T05:09:31.537Z,17.6
2019-03-12T05:10:22.437Z,17.6
2019-03-12T05:11:12.195Z,17.6
2019-03-12T05:12:01.931Z,17.6
2019-03-12T05:12:51.960Z,17.6
2019-03-12T05:13:41.786Z,17.6
2019-03-12T05:14:32.082Z,17.6
2019-03-12T05:15:22.259Z,17.6
2019-03-12T05:16:11.909Z,17.6
2019-03-12T05:17:01.792Z,17.6
2019-03-12T05:17:51.890Z,17.6
2019-03-12T05:18:42.345Z,17.6
2019-03-12T05:19:32.469Z,17.6
2019-03-12T05:20:23.057Z,17.6
2019-03-12T05:21:12.008Z,17.6
2019-03-12T05:22:02.345Z,17.6
2019-03-12T05:22:53.117Z,17.6
2019-03-12T05:23:42.717Z,17.5
2019-03-12T05:24:33.066Z,17.5
2019-03-12T05:25:23.139Z,17.6
2019-03-12T05:26:12.671Z,17.6
2019-03-12T05:27:03.804Z,17.6
2019-03-12T05:27:52.314Z,17.5
2019-03-12T05:28:42.832Z,17.5
2019-03-12T05:29:32.864Z,17.6
2019-03-12T05:30:23.814Z,17.6
2019-03-12T05:31:13.842Z,17.6
2019-03-12T05:32:03.395Z,17.5
2019-03-12T05:32:53.861Z,17.5
2019-03-12T05:33:43.172Z,17.6
2019-03-12T05:34:33.559Z,17.5
2019-03-12T05:35:23.646Z,17.6
2019-03-12T05:36:14.208Z,17.5
2019-03-12T05:37:03.757Z,17.5
2019-03-12T05:37:54.086Z,17.5
2019-03-12T05:38:44.461Z,17.5
2019-03-12T05:39:34.206Z,17.5
2019-03-12T05:40:22.628Z,17.5
2019-03-12T05:41:17.296Z,17.5
2019-03-12T05:42:04.098Z,17.5
2019-03-12T05:42:53.823Z,17.5
2019-03-12T05:43:44.131Z,17.5
2019-03-12T05:44:34.243Z,17.5
2019-03-12T05:45:24.668Z,17.5
2019-03-12T05:46:15.263Z,17.5
2019-03-12T05:47:08.565Z,17.5
2019-03-12T05:47:54.720Z,17.5
2019-03-12T05:48:45.140Z,17.5
2019-03-12T05:49:34.593Z,17.5
2019-03-12T05:50:24.580Z,17.5
2019-03-12T05:51:14.701Z,17.5
2019-03-12T05:52:04.328Z,17.5
2019-03-12T05:52:56.890Z,17.5
2019-03-12T05:53:45.723Z,17.5
2019-03-12T05:54:35.076Z,17.5
2019-03-12T05:55:25.693Z,17.5
2019-03-12T05:56:15.315Z,17.5
2019-03-12T05:57:05.153Z,17.5
2019-03-12T05:57:55.980Z,17.5
2019-03-12T05:58:45.235Z,17.5
2019-03-12T05:59:35.450Z,17.5
2019-03-12T06:00:25.188Z,17.5
2019-03-12T06:01:15.146Z,17.5
2019-03-12T06:02:05.522Z,17.5
2019-03-12T06:02:55.580Z,17.5
2019-03-12T06:05:42.328Z,17.5
2019-03-12T06:06:32.899Z,17.5
2019-03-12T06:07:22.741Z,17.5
2019-03-12T06:08:13.577Z,17.5
2019-03-12T06:09:03.389Z,17.5
2019-03-12T06:09:53.063Z,17.4
2019-03-12T06:10:43.398Z,17.4
2019-03-12T06:11:32.960Z,17.4
2019-03-12T06:12:23.774Z,17.4
2019-03-12T06:13:13.646Z,17.4
2019-03-12T06:14:03.710Z,17.4
2019-03-12T06:14:53.691Z,17.4
2019-03-12T06:15:42.994Z,17.4
2019-03-12T06:16:33.259Z,17.4
2019-03-12T06:17:23.959Z,17.4
2019-03-12T06:18:14.005Z,17.4
2019-03-12T06:19:03.526Z,17.5
2019-03-12T06:19:53.204Z,17.4
2019-03-12T06:20:43.844Z,17.4
2019-03-12T06:21:33.889Z,17.4
2019-03-12T06:22:24.271Z,17.4
2019-03-12T06:23:16.642Z,17.4
2019-03-12T06:24:04.949Z,17.4
2019-03-12T06:24:54.694Z,17.4
2019-03-12T06:25:43.409Z,17.4
2019-03-12T06:26:33.944Z,17.4
2019-03-12T06:27:25.697Z,17.4
2019-03-12T06:28:14.613Z,17.4
2019-03-12T06:29:04.156Z,17.4
2019-03-12T06:29:54.308Z,17.4
2019-03-12T06:30:44.811Z,17.4
2019-03-12T06:31:34.857Z,17.4
2019-03-12T06:32:24.568Z,17.4
2019-03-12T06:33:14.528Z,17.4
2019-03-12T06:34:04.590Z,17.4
2019-03-12T06:34:55.228Z,17.4
2019-03-12T06:35:43.978Z,17.5
2019-03-12T06:36:35.035Z,17.5
2019-03-12T06:37:24.060Z,17.4
2019-03-12T06:38:14.661Z,17.5
2019-03-12T06:39:04.661Z,17.4
2019-03-12T06:39:55.318Z,17.4
2019-03-12T06:40:45.187Z,17.4
2019-03-12T06:41:35.319Z,17.4
2019-03-12T06:42:26.045Z,17.4
2019-03-12T06:43:15.462Z,17.4
2019-03-12T06:44:06.172Z,17.4
2019-03-12T06:44:55.890Z,17.5
2019-03-12T06:45:46.478Z,17.4
2019-03-12T06:46:35.492Z,17.4
2019-03-12T06:47:24.713Z,17.4
2019-03-12T06:48:15.280Z,17.4
2019-03-12T06:49:05.944Z,17.4
2019-03-12T06:49:56.002Z,17.4
2019-03-12T06:50:45.794Z,17.4
2019-03-12T06:51:34.760Z,17.4
2019-03-12T06:52:25.920Z,17.4
2019-03-12T06:53:15.702Z,17.4
2019-03-12T06:54:06.779Z,17.4
2019-03-12T06:54:56.583Z,17.4
2019-03-12T06:55:48.607Z,17.4
2019-03-12T06:56:36.357Z,17.4
2019-03-12T06:57:25.719Z,17.4
2019-03-12T06:58:16.854Z,17.4
2019-03-12T06:59:06.211Z,17.4
2019-03-12T06:59:56.416Z,17.4
2019-03-12T07:00:46.233Z,17.4
2019-03-12T07:01:36.647Z,17.4
2019-03-12T07:02:27.741Z,17.4
2019-03-12T07:03:17.506Z,17.4
2019-03-12T07:05:41.921Z,17.3
2019-03-12T07:06:32.806Z,17.4
2019-03-12T07:07:25.063Z,17.4
2019-03-12T07:08:14.398Z,17.4
2019-03-12T07:09:03.643Z,17.4
2019-03-12T07:09:53.744Z,17.4
2019-03-12T07:10:43.041Z,17.4
2019-03-12T07:11:33.123Z,17.4
2019-03-12T07:12:23.728Z,17.4
2019-03-12T07:13:13.578Z,17.4
2019-03-12T07:14:03.844Z,17.4
2019-03-12T07:14:53.371Z,17.4
2019-03-12T07:15:43.814Z,17.4
2019-03-12T07:16:33.757Z,17.4
2019-03-12T07:17:23.581Z,17.4
2019-03-12T07:18:13.610Z,17.4
2019-03-12T07:19:03.928Z,17.4
2019-03-12T07:19:54.531Z,17.4
2019-03-12T07:20:44.331Z,17.4
2019-03-12T07:21:34.393Z,17.4
2019-03-12T07:22:23.885Z,17.4
2019-03-12T07:23:14.548Z,17.4
2019-03-12T07:24:04.554Z,17.4
2019-03-12T07:25:08.530Z,17.4
2019-03-12T07:25:44.388Z,17.4
2019-03-12T07:26:33.990Z,17.4
2019-03-12T07:27:24.283Z,17.4
2019-03-12T07:28:13.285Z,17.4
2019-03-12T07:29:04.500Z,17.4
2019-03-12T07:29:54.780Z,17.4
2019-03-12T07:30:44.520Z,17.4
2019-03-12T07:31:36.027Z,17.4
2019-03-12T07:32:24.860Z,17.4
2019-03-12T07:33:14.790Z,17.4
2019-03-12T07:34:05.019Z,17.4
2019-03-12T07:34:55.312Z,17.4
2019-03-12T07:35:45.130Z,17.4
2019-03-12T07:36:35.172Z,17.4
2019-03-12T07:37:25.229Z,17.4
2019-03-12T07:38:15.299Z,17.4
2019-03-12T07:39:05.588Z,17.4
2019-03-12T07:39:54.112Z,17.4
2019-03-12T07:40:44.697Z,17.4
2019-03-12T07:41:41.285Z,17.4
2019-03-12T07:42:24.762Z,17.4
2019-03-12T07:43:15.185Z,17.4
2019-03-12T07:44:05.474Z,17.4
2019-03-12T07:44:55.782Z,17.4
2019-03-12T07:45:49.010Z,17.4
2019-03-12T07:46:36.052Z,17.4
2019-03-12T07:47:43.688Z,17.4
2019-03-12T07:48:30.477Z,17.4
2019-03-12T07:49:05.896Z,17.4
2019-03-12T07:49:55.712Z,17.4
2019-03-12T07:50:45.528Z,17.4
2019-03-12T07:51:35.014Z,17.4
2019-03-12T07:52:25.574Z,17.4
2019-03-12T07:53:15.364Z,17.4
2019-03-12T07:54:08.591Z,17.4
2019-03-12T07:54:56.019Z,17.4
2019-03-12T07:55:46.705Z,17.4
2019-03-12T07:56:36.936Z,17.4
2019-03-12T07:57:26.716Z,17.4
2019-03-12T07:58:17.115Z,17.4
2019-03-12T07:59:10.176Z,17.4
2019-03-12T07:59:56.393Z,17.4
2019-03-12T08:00:47.174Z,17.4
2019-03-12T08:01:37.281Z,17.4
2019-03-12T08:02:25.919Z,17.3
2019-03-12T08:03:17.629Z,17.4
2019-03-12T08:04:07.494Z,17.4
2019-03-12T08:04:56.673Z,17.4
2019-03-12T08:05:47.560Z,17.3
2019-03-12T08:06:37.035Z,17.4
2019-03-12T08:07:26.670Z,17.3
2019-03-12T08:08:16.141Z,17.4
2019-03-12T08:09:07.620Z,17.4
2019-03-12T08:09:57.016Z,17.4
2019-03-12T08:10:47.961Z,17.4
2019-03-12T08:11:37.636Z,17.3
2019-03-12T08:12:28.340Z,17.4
2019-03-12T08:13:18.130Z,17.3
2019-03-12T08:14:06.855Z,17.4
2019-03-12T08:14:57.963Z,17.3
2019-03-12T08:15:50.298Z,17.3
2019-03-12T08:16:37.293Z,17.3
2019-03-12T08:17:27.362Z,17.4
2019-03-12T08:18:16.661Z,17.4
2019-03-12T08:19:07.767Z,17.3
2019-03-12T08:19:57.857Z,17.4
2019-03-12T08:20:47.962Z,17.3
2019-03-12T08:21:37.962Z,17.4
2019-03-12T08:22:27.712Z,17.3
2019-03-12T08:23:18.097Z,17.3
2019-03-12T08:24:08.432Z,17.4
2019-03-12T08:24:58.470Z,17.3
2019-03-12T08:25:52.437Z,17.3
2019-03-12T08:26:38.984Z,17.4
2019-03-12T08:27:31.416Z,17.3
2019-03-12T08:28:18.891Z,17.3
2019-03-12T08:29:08.975Z,17.3
2019-03-12T08:29:59.072Z,17.4
2019-03-12T08:30:48.909Z,17.3
2019-03-12T08:31:38.869Z,17.3
2019-03-12T08:32:32.062Z,17.3
2019-03-12T08:33:18.053Z,17.4
2019-03-12T08:34:09.314Z,17.3
2019-03-12T08:34:59.776Z,17.3
2019-03-12T08:35:49.565Z,17.3
2019-03-12T08:36:39.795Z,17.3
2019-03-12T08:37:29.992Z,17.3
2019-03-12T08:38:19.175Z,17.3
2019-03-12T08:39:10.246Z,17.3
2019-03-12T08:40:00.078Z,17.3
2019-03-12T08:41:04.746Z,17.3
2019-03-12T08:41:39.569Z,17.3
2019-03-12T08:42:29.681Z,17.3
2019-03-12T08:43:20.269Z,17.3
2019-03-12T08:44:09.838Z,17.3
2019-03-12T08:45:03.713Z,17.3
2019-03-12T08:45:57.153Z,17.3
2019-03-12T08:46:40.947Z,17.3
2019-03-12T08:47:29.847Z,17.3
2019-03-12T08:48:21.655Z,17.3
2019-03-12T08:49:10.897Z,17.3
2019-03-12T08:49:59.971Z,17.3
2019-03-12T08:50:50.643Z,17.3
2019-03-12T08:51:41.343Z,17.3
2019-03-12T08:52:30.846Z,17.3
2019-03-12T08:53:20.844Z,17.3
2019-03-12T08:54:10.865Z,17.3
2019-03-12T08:55:07.500Z,17.3
2019-03-12T08:55:51.576Z,17.3
2019-03-12T08:56:40.995Z,17.3
2019-03-12T08:57:31.691Z,17.3
2019-03-12T08:58:21.466Z,17.3
2019-03-12T08:59:10.677Z,17.3
2019-03-12T09:00:01.529Z,17.3
2019-03-12T09:00:50.037Z,17.3
2019-03-12T09:01:47.737Z,17.3
2019-03-12T09:02:30.915Z,17.3
2019-03-12T09:03:20.419Z,17.3
2019-03-12T09:04:11.609Z,17.3
2019-03-12T09:05:01.371Z,17.3
2019-03-12T09:05:51.094Z,17.3
2019-03-12T09:06:41.178Z,17.3
2019-03-12T09:07:29.855Z,17.3
2019-03-12T09:08:20.762Z,17.3
2019-03-12T09:09:11.363Z,17.3
2019-03-12T09:10:01.127Z,17.3
2019-03-12T09:10:51.749Z,17.3
2019-03-12T09:11:41.077Z,17.3
2019-03-12T09:12:31.890Z,17.3
2019-03-12T09:13:21.730Z,17.3
2019-03-12T09:14:10.681Z,17.3
2019-03-12T09:15:02.003Z,17.3
2019-03-12T09:15:51.944Z,17.3
2019-03-12T09:16:41.522Z,17.3
2019-03-12T09:17:31.618Z,17.3
2019-03-12T09:18:21.476Z,17.3
2019-03-12T09:19:11.984Z,17.3
2019-03-12T09:20:02.796Z,17.3
2019-03-12T09:20:52.132Z,17.3
2019-03-12T09:21:42.526Z,17.3
2019-03-12T09:22:33.068Z,17.3
2019-03-12T09:23:23.684Z,17.3
2019-03-12T09:24:13.593Z,17.3
2019-03-12T09:25:03.006Z,17.3
2019-03-12T09:25:52.776Z,17.3
2019-03-12T09:26:41.981Z,17.3
2019-03-12T09:27:33.381Z,17.3
2019-03-12T09:28:23.312Z,17.3
2019-03-12T09:29:13.483Z,17.3
2019-03-12T09:30:03.496Z,17.3
2019-03-12T09:30:52.581Z,17.3
2019-03-12T09:31:43.525Z,17.3
2019-03-12T09:32:33.498Z,17.3
2019-03-12T09:33:23.868Z,17.3
2019-03-12T09:34:13.611Z,17.3
2019-03-12T09:35:03.832Z,17.3
2019-03-12T09:35:52.906Z,17.3
2019-03-12T09:36:42.925Z,17.3
2019-03-12T09:37:33.623Z,17.3
2019-03-12T09:38:24.343Z,17.3
2019-03-12T09:39:13.706Z,17.3
2019-03-12T09:40:04.424Z,17.3
2019-03-12T09:40:53.268Z,17.3
2019-03-12T09:41:43.471Z,17.3
2019-03-12T09:42:34.000Z,17.3
2019-03-12T09:43:23.765Z,17.3
2019-03-12T09:44:14.649Z,17.3
2019-03-12T09:45:04.145Z,17.3
2019-03-12T09:45:54.780Z,17.3
2019-03-12T09:46:44.855Z,17.3
2019-03-12T09:47:33.987Z,17.3
2019-03-12T09:48:24.313Z,17.3
2019-03-12T09:49:14.245Z,17.3
2019-03-12T09:50:04.430Z,17.2
2019-03-12T09:50:54.574Z,17.3
2019-03-12T09:51:44.960Z,17.3
2019-03-12T09:52:34.703Z,17.3
2019-03-12T09:53:25.037Z,17.3
2019-03-12T09:54:14.565Z,17.3
2019-03-12T09:55:08.209Z,17.3
2019-03-12T09:55:56.025Z,17.3
2019-03-12T09:56:44.949Z,17.3
2019-03-12T09:57:35.442Z,17.2
2019-03-12T09:58:25.073Z,17.3
2019-03-12T09:59:15.435Z,17.2
2019-03-12T10:00:20.987Z,17.2
2019-03-12T10:00:55.247Z,17.2
2019-03-12T10:01:45.932Z,17.2
2019-03-12T10:02:35.169Z,17.2
2019-03-12T10:03:25.320Z,17.2
2019-03-12T10:04:15.991Z,17.2
2019-03-12T10:06:43.223Z,17.2
2019-03-12T10:07:32.644Z,17.2
2019-03-12T10:08:22.274Z,17.2
2019-03-12T10:09:12.361Z,17.2
2019-03-12T10:10:02.950Z,17.2
2019-03-12T10:10:52.426Z,17.2
2019-03-12T10:11:43.234Z,17.2
2019-03-12T10:12:33.844Z,17.2
2019-03-12T10:13:23.336Z,17.2
2019-03-12T10:14:11.804Z,17.2
2019-03-12T10:15:03.523Z,17.2
2019-03-12T10:15:53.506Z,17.2
2019-03-12T10:16:43.518Z,17.2
2019-03-12T10:17:34.216Z,17.2
2019-03-12T10:18:22.567Z,17.2
2019-03-12T10:19:13.911Z,17.2
2019-03-12T10:20:02.934Z,17.2
2019-03-12T10:20:54.256Z,17.2
2019-03-12T10:21:43.641Z,17.2
2019-03-12T10:22:33.416Z,17.2
2019-03-12T10:23:23.841Z,17.2
2019-03-12T10:24:14.079Z,17.2
2019-03-12T10:25:04.303Z,17.2
2019-03-12T10:25:53.653Z,17.2
2019-03-12T10:26:44.430Z,17.2
2019-03-12T10:27:33.915Z,17.2
2019-03-12T10:28:25.008Z,17.2
2019-03-12T10:29:14.438Z,17.2
2019-03-12T10:30:04.495Z,17.2
2019-03-12T10:30:54.366Z,17.2
2019-03-12T10:31:44.396Z,17.2
2019-03-12T10:32:35.270Z,17.2
2019-03-12T10:33:24.485Z,17.2
2019-03-12T10:34:15.103Z,17.2
2019-03-12T10:35:04.765Z,17.2
2019-03-12T10:35:56.403Z,17.2
2019-03-12T10:36:45.317Z,17.2
2019-03-12T10:37:34.807Z,17.2
2019-03-12T10:38:24.249Z,17.2
2019-03-12T10:39:15.167Z,17.2
2019-03-12T10:40:05.304Z,17.2
2019-03-12T10:40:55.683Z,17.2
2019-03-12T10:41:44.913Z,17.2
2019-03-12T10:42:34.392Z,17.2
2019-03-12T10:43:25.484Z,17.2
2019-03-12T10:44:15.057Z,17.2
2019-03-12T10:45:06.293Z,17.2
2019-03-12T10:45:55.643Z,17.2
2019-03-12T10:46:45.705Z,17.2
2019-03-12T10:47:35.767Z,17.2
2019-03-12T10:48:26.166Z,17.2
2019-03-12T10:49:15.429Z,17.1
2019-03-12T10:50:05.746Z,17.2
2019-03-12T10:50:56.300Z,17.2
2019-03-12T10:51:45.894Z,17.2
2019-03-12T10:52:35.303Z,17.2
2019-03-12T10:53:26.222Z,17.2
2019-03-12T10:54:15.527Z,17.2
2019-03-12T10:55:21.894Z,17.2
2019-03-12T10:55:56.080Z,17.2
2019-03-12T10:56:46.467Z,17.2
2019-03-12T10:57:35.684Z,17.1
2019-03-12T10:58:27.203Z,17.1
2019-03-12T10:59:15.821Z,17.2
2019-03-12T11:00:06.381Z,17.1
2019-03-12T11:00:56.326Z,17.1
2019-03-12T11:01:47.069Z,17.1
2019-03-12T11:02:36.257Z,17.1
2019-03-12T11:03:26.916Z,17.2
2019-03-12T11:04:17.623Z,17.1
2019-03-12T11:05:06.624Z,17.2
2019-03-12T11:05:56.253Z,17.1
2019-03-12T11:06:46.110Z,17.1
2019-03-12T11:07:36.986Z,17.2
2019-03-12T11:08:26.503Z,17.1
2019-03-12T11:09:17.341Z,17.1
2019-03-12T11:10:07.438Z,17.2
2019-03-12T11:10:55.948Z,17.1
2019-03-12T11:11:47.208Z,17.1
2019-03-12T11:12:37.412Z,17.1
2019-03-12T11:13:27.373Z,17.1
2019-03-12T11:14:16.917Z,17.1
2019-03-12T11:15:07.523Z,17.1
2019-03-12T11:15:58.128Z,17.1